Porcupine Plain, Canada
Current Conditions -  °F | °C
As of 4:00 AM on Friday 19 Dec 2014 (Local Time) from CYBU Reporting Station
Haze Haze  
Wind Chill: 13°   Ceiling: 700
Heat Index: 19°   Visibility: 5mi
Dew Point: 19°   Wind: 5mph
Humidity: 100%   Direction: 300°WNW
Pressure: 29.93"   Gusts: NA
Location:  52.6°N, 103.25°W
Report Text: CYBU 191000Z AUTO 30004KT 5SM BR OVC007 M07/M07 A2993 RMK SLP163
Loading
Personal Weather Stations






























Interactive Weather Map New forecast layout! Learn more

10-Day Weather Forecast

Advertisements
Track Severe Weather on mobile